createdAt,value
2023-04-27T00:00:56.959Z,26.66
2023-04-27T00:01:57.023Z,26.67
2023-04-27T00:02:57.174Z,26.70
2023-04-27T00:03:57.153Z,26.62
2023-04-27T00:04:57.263Z,26.70
2023-04-27T00:05:57.211Z,26.70
2023-04-27T00:06:57.039Z,26.70
2023-04-27T00:07:57.069Z,26.70
2023-04-27T00:08:57.065Z,26.72
2023-04-27T00:09:57.068Z,26.73
2023-04-27T00:10:57.073Z,26.75
2023-04-27T00:11:58.240Z,26.72
2023-04-27T00:12:57.116Z,26.78
2023-04-27T00:13:57.119Z,26.76
2023-04-27T00:14:57.115Z,26.74
2023-04-27T00:15:57.187Z,26.75
2023-04-27T00:16:57.131Z,26.72
2023-04-27T00:17:57.830Z,26.73
2023-04-27T00:18:57.162Z,26.75
2023-04-27T00:19:57.162Z,26.75
2023-04-27T00:20:57.168Z,26.76
2023-04-27T00:21:57.202Z,26.79
2023-04-27T00:22:57.751Z,26.75
2023-04-27T00:23:57.176Z,26.73
2023-04-27T00:24:57.182Z,26.81
2023-04-27T00:25:57.200Z,26.76
2023-04-27T00:26:57.209Z,26.76
2023-04-27T00:27:57.227Z,26.79
2023-04-27T00:28:57.228Z,26.79
2023-04-27T00:29:57.244Z,26.77
2023-04-27T00:30:57.250Z,26.84
2023-04-27T00:31:57.851Z,26.82
2023-04-27T00:32:57.298Z,26.75
2023-04-27T00:33:57.656Z,26.85
2023-04-27T00:34:57.290Z,26.81
2023-04-27T00:35:57.315Z,26.76
2023-04-27T00:36:57.339Z,26.82
2023-04-27T00:37:57.343Z,26.78
2023-04-27T00:38:57.350Z,26.81
2023-04-27T00:39:57.356Z,26.85
2023-04-27T00:40:57.357Z,26.81
2023-04-27T00:41:57.362Z,26.79
2023-04-27T00:42:57.362Z,26.86
2023-04-27T00:43:57.363Z,26.82
2023-04-27T00:44:57.387Z,26.88
2023-04-27T00:45:57.464Z,26.88
2023-04-27T00:46:57.437Z,26.90
2023-04-27T00:47:57.518Z,26.87
2023-04-27T00:48:57.453Z,26.88
2023-04-27T00:49:57.475Z,26.90
2023-04-27T00:50:57.466Z,26.85
2023-04-27T00:51:57.477Z,26.92
2023-04-27T00:52:58.348Z,26.92
2023-04-27T00:53:57.464Z,26.91
2023-04-27T00:54:57.469Z,26.88
2023-04-27T00:55:57.479Z,26.87
2023-04-27T00:56:57.477Z,26.92
2023-04-27T00:57:57.495Z,26.91
2023-04-27T00:58:57.493Z,26.86
2023-04-27T00:59:57.502Z,26.91
2023-04-27T01:00:58.758Z,26.91
2023-04-27T01:01:57.511Z,26.89
2023-04-27T01:02:57.595Z,26.95
2023-04-27T01:03:58.839Z,26.88
2023-04-27T01:04:57.556Z,26.91
2023-04-27T01:05:57.894Z,27.01
2023-04-27T01:06:57.609Z,26.97
2023-04-27T01:07:57.651Z,26.91
2023-04-27T01:08:57.986Z,26.97
2023-04-27T01:09:57.673Z,26.97
2023-04-27T01:10:57.675Z,26.95
2023-04-27T01:11:57.673Z,26.95
2023-04-27T01:12:57.669Z,26.98
2023-04-27T01:13:57.688Z,27.03
2023-04-27T01:14:57.702Z,26.99
2023-04-27T01:15:57.710Z,27.01
2023-04-27T01:16:57.728Z,27.00
2023-04-27T01:17:57.754Z,27.02
2023-04-27T01:18:57.729Z,27.06
2023-04-27T01:19:57.746Z,27.07
2023-04-27T01:20:57.741Z,27.04
2023-04-27T01:21:57.777Z,27.04
2023-04-27T01:22:57.791Z,27.07
2023-04-27T01:23:57.798Z,27.10
2023-04-27T01:24:57.802Z,27.03
2023-04-27T01:25:57.801Z,27.10
2023-04-27T01:26:57.813Z,27.11
2023-04-27T01:27:57.827Z,27.11
2023-04-27T01:28:57.840Z,27.08
2023-04-27T01:29:57.845Z,27.11
2023-04-27T01:30:57.920Z,27.11
2023-04-27T01:31:57.855Z,27.08
2023-04-27T01:32:57.911Z,27.10
2023-04-27T01:33:57.871Z,27.11
2023-04-27T01:34:57.885Z,27.13
2023-04-27T01:35:57.865Z,27.13
2023-04-27T01:36:57.867Z,27.11
2023-04-27T01:37:57.892Z,27.13
2023-04-27T01:38:57.889Z,27.15
2023-04-27T01:39:57.911Z,27.13
2023-04-27T01:40:59.772Z,27.16
2023-04-27T01:41:58.647Z,27.13
2023-04-27T01:42:58.301Z,27.20
2023-04-27T01:43:57.956Z,27.13
2023-04-27T01:44:57.967Z,27.13
2023-04-27T01:45:57.997Z,27.17
2023-04-27T01:46:58.000Z,27.17
2023-04-27T01:47:58.047Z,27.19
2023-04-27T01:48:58.009Z,27.17
2023-04-27T01:49:58.017Z,27.23
2023-04-27T01:50:59.283Z,27.17
2023-04-27T01:51:58.041Z,27.23
2023-04-27T01:52:58.329Z,27.26
2023-04-27T01:53:58.077Z,27.21
2023-04-27T01:54:58.171Z,27.23
2023-04-27T01:55:58.112Z,27.22
2023-04-27T01:56:58.138Z,27.23
2023-04-27T01:57:58.168Z,27.22
2023-04-27T01:58:58.186Z,27.26
2023-04-27T01:59:58.210Z,27.26
2023-04-27T02:00:58.213Z,27.28
2023-04-27T02:01:58.249Z,27.29
2023-04-27T02:02:58.340Z,27.20
2023-04-27T02:03:58.371Z,27.24
2023-04-27T02:05:00.237Z,27.29
2023-04-27T02:05:58.265Z,27.29
2023-04-27T02:06:58.290Z,27.30
2023-04-27T02:07:58.318Z,27.28
2023-04-27T02:08:58.339Z,27.29
2023-04-27T02:09:58.369Z,27.30
2023-04-27T02:10:58.389Z,27.33
2023-04-27T02:11:58.394Z,27.30
2023-04-27T02:12:58.429Z,27.32
2023-04-27T02:13:59.202Z,27.30
2023-04-27T02:14:58.412Z,27.36
2023-04-27T02:15:58.453Z,27.33
2023-04-27T02:16:58.520Z,27.38
2023-04-27T02:17:58.551Z,27.30
2023-04-27T02:18:58.513Z,27.38
2023-04-27T02:19:58.511Z,27.38
2023-04-27T02:20:58.514Z,27.34
2023-04-27T02:21:58.521Z,27.39
2023-04-27T02:22:58.544Z,27.38
2023-04-27T02:23:58.593Z,27.39
2023-04-27T02:24:58.616Z,27.42
2023-04-27T02:25:58.636Z,27.40
2023-04-27T02:26:58.662Z,27.42
2023-04-27T02:27:58.678Z,27.42
2023-04-27T02:28:58.685Z,27.46
2023-04-27T02:29:58.702Z,27.40
2023-04-27T02:30:59.763Z,27.39
2023-04-27T02:31:58.806Z,27.42
2023-04-27T02:32:59.053Z,27.42
2023-04-27T02:33:58.739Z,27.45
2023-04-27T02:34:58.759Z,27.46
2023-04-27T02:35:58.769Z,27.45
2023-04-27T02:36:58.799Z,27.45
2023-04-27T02:37:58.804Z,27.45
2023-04-27T02:38:58.827Z,27.45
2023-04-27T02:40:00.701Z,27.43
2023-04-27T02:40:58.849Z,27.43
2023-04-27T02:41:58.866Z,27.46
2023-04-27T02:42:58.885Z,27.49
2023-04-27T02:43:58.905Z,27.47
2023-04-27T02:44:58.893Z,27.46
2023-04-27T02:45:58.869Z,27.49
2023-04-27T02:46:58.911Z,27.47
2023-04-27T02:47:59.339Z,27.49
2023-04-27T02:48:58.820Z,27.51
2023-04-27T02:49:58.806Z,27.52
2023-04-27T02:50:58.794Z,27.47
2023-04-27T02:51:58.778Z,27.45
2023-04-27T02:52:59.482Z,27.54
2023-04-27T02:53:58.747Z,27.52
2023-04-27T02:54:58.739Z,27.52
2023-04-27T02:55:58.730Z,27.55
2023-04-27T02:56:58.714Z,27.59
2023-04-27T02:57:58.698Z,27.58
2023-04-27T02:58:58.685Z,27.58
2023-04-27T02:59:58.723Z,27.59
2023-04-27T03:00:58.777Z,27.61
2023-04-27T03:01:58.749Z,27.61
2023-04-27T03:02:58.847Z,27.59
2023-04-27T03:03:58.817Z,27.61
2023-04-27T03:04:59.496Z,27.64
2023-04-27T03:05:58.775Z,27.61
2023-04-27T03:06:58.775Z,27.67
2023-04-27T03:07:58.787Z,27.65
2023-04-27T03:08:58.790Z,27.56
2023-04-27T03:09:58.807Z,27.59
2023-04-27T03:10:58.817Z,27.61
2023-04-27T03:11:58.837Z,27.64
2023-04-27T03:12:58.850Z,27.64
2023-04-27T03:13:58.868Z,27.65
2023-04-27T03:14:58.916Z,27.64
2023-04-27T03:15:58.958Z,27.64
2023-04-27T03:16:59.007Z,27.62
2023-04-27T03:17:59.010Z,27.65
2023-04-27T03:18:58.976Z,27.64
2023-04-27T03:19:58.986Z,27.64
2023-04-27T03:20:58.999Z,27.64
2023-04-27T03:21:59.005Z,27.67
2023-04-27T03:22:59.001Z,27.64
2023-04-27T03:23:59.012Z,27.65
2023-04-27T03:24:59.021Z,27.67
2023-04-27T03:25:59.040Z,27.67
2023-04-27T03:26:59.047Z,27.65
2023-04-27T03:28:00.323Z,27.67
2023-04-27T03:28:59.065Z,27.64
2023-04-27T03:29:59.056Z,27.64
2023-04-27T03:30:59.069Z,27.66
2023-04-27T03:31:59.116Z,27.69
2023-04-27T03:32:59.135Z,27.69
2023-04-27T03:33:59.106Z,27.69
2023-04-27T03:34:59.121Z,27.70
2023-04-27T03:35:59.136Z,27.70
2023-04-27T03:36:59.136Z,27.67
2023-04-27T03:37:59.153Z,27.71
2023-04-27T03:38:59.149Z,27.70
2023-04-27T03:39:59.183Z,27.73
2023-04-27T03:40:59.193Z,27.70
2023-04-27T03:41:59.211Z,27.70
2023-04-27T03:42:59.324Z,27.71
2023-04-27T03:43:59.197Z,27.73
2023-04-27T03:44:59.251Z,27.71
2023-04-27T03:45:59.275Z,27.71
2023-04-27T03:47:00.288Z,27.70
2023-04-27T03:47:59.292Z,27.75
2023-04-27T03:48:59.270Z,27.70
2023-04-27T03:49:59.261Z,27.69
2023-04-27T03:50:59.280Z,27.75
2023-04-27T03:51:59.281Z,27.70
2023-04-27T03:53:00.377Z,27.70
2023-04-27T03:53:59.318Z,27.70
2023-04-27T03:54:59.343Z,27.75
2023-04-27T03:55:59.368Z,27.73
2023-04-27T03:56:59.366Z,27.72
2023-04-27T03:57:59.383Z,27.75
2023-04-27T03:58:59.395Z,27.73
2023-04-27T03:59:59.396Z,27.70
2023-04-27T04:00:59.405Z,27.75
2023-04-27T04:02:01.139Z,27.75
2023-04-27T04:02:59.560Z,27.80
2023-04-27T04:03:59.672Z,27.75
2023-04-27T04:04:59.554Z,27.75
2023-04-27T04:05:59.461Z,27.75
2023-04-27T04:07:01.461Z,27.78
2023-04-27T04:07:59.478Z,27.80
2023-04-27T04:08:59.487Z,27.82
2023-04-27T04:09:59.528Z,27.79
2023-04-27T04:10:59.587Z,27.81
2023-04-27T04:11:59.572Z,27.87
2023-04-27T04:12:59.612Z,27.75
2023-04-27T04:13:59.604Z,27.78
2023-04-27T04:14:59.650Z,27.89
2023-04-27T04:15:59.676Z,27.84
2023-04-27T04:16:59.654Z,27.85
2023-04-27T04:17:59.682Z,27.79
2023-04-27T04:18:59.650Z,27.85
2023-04-27T04:19:59.678Z,27.87
2023-04-27T04:20:59.700Z,27.89
2023-04-27T04:21:59.742Z,27.85
2023-04-27T04:22:59.732Z,27.87
2023-04-27T04:23:59.732Z,27.93
2023-04-27T04:24:59.760Z,27.85
2023-04-27T04:25:59.772Z,27.87
2023-04-27T04:26:59.779Z,27.85
2023-04-27T04:27:59.805Z,27.94
2023-04-27T04:28:59.808Z,27.88
2023-04-27T04:29:59.810Z,27.91
2023-04-27T04:30:59.871Z,27.85
2023-04-27T04:31:59.837Z,27.88
2023-04-27T04:32:59.890Z,27.97
2023-04-27T04:33:59.851Z,27.98
2023-04-27T04:34:59.848Z,27.89
2023-04-27T04:35:59.869Z,27.98
2023-04-27T04:36:59.891Z,27.98
2023-04-27T04:37:59.908Z,27.95
2023-04-27T04:38:59.906Z,27.98
2023-04-27T04:39:59.907Z,27.97
2023-04-27T04:40:59.921Z,27.98
2023-04-27T04:41:59.917Z,27.97
2023-04-27T04:42:59.928Z,27.97
2023-04-27T04:44:00.727Z,27.98
2023-04-27T04:44:59.940Z,28.00
2023-04-27T04:45:59.956Z,27.97
2023-04-27T04:47:00.023Z,28.03
2023-04-27T04:48:00.046Z,28.04
2023-04-27T04:48:59.978Z,28.00
2023-04-27T04:49:59.997Z,28.00
2023-04-27T04:51:00.015Z,28.03
2023-04-27T04:52:00.027Z,28.03
2023-04-27T04:53:00.850Z,28.03
2023-04-27T04:54:01.729Z,28.07
2023-04-27T04:55:00.030Z,28.05
2023-04-27T04:56:00.066Z,28.04
2023-04-27T04:57:00.034Z,27.97
2023-04-27T04:58:00.048Z,28.05
2023-04-27T04:59:00.031Z,28.04
2023-04-27T05:00:00.040Z,28.07
2023-04-27T05:01:00.037Z,28.04
2023-04-27T05:02:00.166Z,28.07
2023-04-27T05:03:02.164Z,28.03
2023-04-27T05:04:00.237Z,28.06
2023-04-27T05:05:00.180Z,28.10
2023-04-27T05:06:00.092Z,28.05
2023-04-27T05:07:00.051Z,28.04
2023-04-27T05:08:00.809Z,28.05
2023-04-27T05:09:00.080Z,28.08
2023-04-27T05:10:00.170Z,28.10
2023-04-27T05:11:00.093Z,28.11
2023-04-27T05:12:00.085Z,28.08
2023-04-27T05:13:00.091Z,28.16
2023-04-27T05:14:00.084Z,28.11
2023-04-27T05:15:00.079Z,28.10
2023-04-27T05:16:00.153Z,28.16
2023-04-27T05:17:01.072Z,28.13
2023-04-27T05:18:00.172Z,28.13
2023-04-27T05:19:00.076Z,28.13
2023-04-27T05:20:00.125Z,28.16
2023-04-27T05:21:00.104Z,28.16
2023-04-27T05:22:00.121Z,28.20
2023-04-27T05:23:00.130Z,28.17
2023-04-27T05:24:02.060Z,28.19
2023-04-27T05:25:00.160Z,28.19
2023-04-27T05:26:00.134Z,28.20
2023-04-27T05:27:01.531Z,29.39
2023-04-27T05:28:00.185Z,30.82
2023-04-27T05:29:00.124Z,30.45
2023-04-27T05:30:00.188Z,30.46
2023-04-27T05:31:01.047Z,30.24
2023-04-27T05:32:00.277Z,30.13
2023-04-27T05:33:00.242Z,30.78
2023-04-27T05:34:00.171Z,30.61
2023-04-27T05:35:00.263Z,31.20
2023-04-27T05:36:00.270Z,30.05
2023-04-27T05:37:00.253Z,30.25
2023-04-27T05:38:00.289Z,30.62
2023-04-27T05:39:00.310Z,31.03
2023-04-27T05:40:00.319Z,31.43
2023-04-27T05:41:00.336Z,31.81
2023-04-27T05:42:00.393Z,31.66
2023-04-27T05:43:00.414Z,32.18
2023-04-27T05:44:00.441Z,32.05
2023-04-27T05:45:00.526Z,32.44
2023-04-27T05:46:00.546Z,32.03
2023-04-27T05:47:00.505Z,31.97
2023-04-27T05:48:00.572Z,32.19
2023-04-27T05:49:00.693Z,32.12
2023-04-27T05:50:00.558Z,32.68
2023-04-27T05:51:00.555Z,32.06
2023-04-27T05:52:00.548Z,32.09
2023-04-27T05:53:00.544Z,31.70
2023-04-27T05:54:00.563Z,32.22
2023-04-27T05:55:00.552Z,31.75
2023-04-27T05:56:00.570Z,32.18
2023-04-27T05:57:00.585Z,31.75
2023-04-27T05:58:07.793Z,31.50
2023-04-27T05:59:10.745Z,31.61
2023-04-27T06:00:01.542Z,31.32
2023-04-27T06:01:00.541Z,30.81
2023-04-27T06:02:00.523Z,32.14
2023-04-27T06:03:00.629Z,32.00
2023-04-27T06:04:00.607Z,31.38
2023-04-27T06:05:00.478Z,31.88
2023-04-27T06:06:00.400Z,31.53
2023-04-27T06:07:00.389Z,31.38
2023-04-27T06:08:00.351Z,31.31
2023-04-27T06:09:00.334Z,30.92
2023-04-27T06:10:00.305Z,31.42
2023-04-27T06:11:00.282Z,31.33
2023-04-27T06:12:02.029Z,31.29
2023-04-27T06:13:00.221Z,31.35
2023-04-27T06:14:00.192Z,31.10
2023-04-27T06:15:00.212Z,31.07
2023-04-27T06:16:00.230Z,31.63
2023-04-27T06:17:00.260Z,31.35
2023-04-27T06:18:00.166Z,31.35
2023-04-27T06:19:00.111Z,31.07
2023-04-27T06:20:00.036Z,31.36
2023-04-27T06:21:00.015Z,31.09
2023-04-27T06:21:59.986Z,30.95
2023-04-27T06:22:59.973Z,30.56
2023-04-27T06:23:59.935Z,31.12
2023-04-27T06:24:59.922Z,30.91
2023-04-27T06:25:59.875Z,31.45
2023-04-27T06:26:59.853Z,31.53
2023-04-27T06:27:59.820Z,31.65
2023-04-27T06:28:59.790Z,31.66
2023-04-27T06:29:59.758Z,31.70
2023-04-27T06:30:59.733Z,31.69
2023-04-27T06:31:59.843Z,31.82
2023-04-27T06:32:59.895Z,32.09
2023-04-27T06:33:59.720Z,32.14
2023-04-27T06:34:59.747Z,32.24
2023-04-27T06:35:59.776Z,32.35
2023-04-27T06:36:59.786Z,32.63
2023-04-27T06:38:00.630Z,32.57
2023-04-27T06:38:59.891Z,32.58
2023-04-27T06:39:59.817Z,32.84
2023-04-27T06:40:59.821Z,32.72
2023-04-27T06:42:00.574Z,33.04
2023-04-27T06:42:59.822Z,33.17
2023-04-27T06:43:59.821Z,33.06
2023-04-27T06:44:59.823Z,33.05
2023-04-27T06:45:59.947Z,33.21
2023-04-27T06:47:00.498Z,33.30
2023-04-27T06:47:59.818Z,33.57
2023-04-27T06:48:59.780Z,33.65
2023-04-27T06:49:59.748Z,33.85
2023-04-27T06:50:59.746Z,33.86
2023-04-27T06:51:59.726Z,34.94
2023-04-27T06:52:59.692Z,34.29
2023-04-27T06:53:59.671Z,34.27
2023-04-27T06:54:59.653Z,34.35
2023-04-27T06:55:59.669Z,34.57
2023-04-27T06:56:59.592Z,34.47
2023-04-27T06:58:00.504Z,34.53
2023-04-27T06:58:59.560Z,34.51
2023-04-27T06:59:59.540Z,34.58
2023-04-27T07:00:59.528Z,34.72
2023-04-27T07:01:59.610Z,34.85
2023-04-27T07:02:59.552Z,34.87
2023-04-27T07:03:59.549Z,34.98
2023-04-27T07:04:59.517Z,35.17
2023-04-27T07:05:59.415Z,35.26
2023-04-27T07:06:59.402Z,35.19
2023-04-27T07:08:02.473Z,35.42
2023-04-27T07:08:59.362Z,35.67
2023-04-27T07:09:59.319Z,35.59
2023-04-27T07:10:59.300Z,35.58
2023-04-27T07:11:59.248Z,35.73
2023-04-27T07:12:59.214Z,35.81
2023-04-27T07:13:59.193Z,35.98
2023-04-27T07:14:59.153Z,36.45
2023-04-27T07:16:01.062Z,36.18
2023-04-27T07:16:59.067Z,36.25
2023-04-27T07:17:59.048Z,36.33
2023-04-27T07:18:58.983Z,36.31
2023-04-27T07:19:59.583Z,36.73
2023-04-27T07:20:58.914Z,36.40
2023-04-27T07:21:59.879Z,36.78
2023-04-27T07:22:59.831Z,36.55
2023-04-27T07:23:58.797Z,34.09
2023-04-27T07:24:58.757Z,33.71
2023-04-27T07:25:58.750Z,33.15
2023-04-27T07:26:58.709Z,33.09
2023-04-27T07:27:59.519Z,32.99
2023-04-27T07:28:58.646Z,33.16
2023-04-27T07:29:58.627Z,33.30
2023-04-27T07:30:58.611Z,33.54
2023-04-27T07:31:58.652Z,33.82
2023-04-27T07:32:58.635Z,34.35
2023-04-27T07:33:58.519Z,34.46
2023-04-27T07:34:58.487Z,34.69
2023-04-27T07:35:58.459Z,35.13
2023-04-27T07:36:58.429Z,34.83
2023-04-27T07:37:58.411Z,34.96
2023-04-27T07:38:58.368Z,34.99
2023-04-27T07:39:58.365Z,35.04
2023-04-27T07:40:58.341Z,35.19
2023-04-27T07:41:58.256Z,35.21
2023-04-27T07:42:58.218Z,35.53
2023-04-27T07:43:58.173Z,35.40
2023-04-27T07:44:58.123Z,35.54
2023-04-27T07:45:58.113Z,35.65
2023-04-27T07:46:59.018Z,34.00
2023-04-27T07:47:58.912Z,33.10
2023-04-27T07:48:57.978Z,33.08
2023-04-27T07:49:57.950Z,32.44
2023-04-27T07:50:57.910Z,32.46
2023-04-27T07:51:57.881Z,32.05
2023-04-27T07:52:57.955Z,31.94
2023-04-27T07:53:57.817Z,31.81
2023-04-27T07:54:57.802Z,31.67
2023-04-27T07:55:57.765Z,31.59
2023-04-27T07:56:57.724Z,31.89
2023-04-27T07:57:57.721Z,31.76
2023-04-27T07:58:57.721Z,31.59
2023-04-27T07:59:57.738Z,31.48
2023-04-27T08:00:57.778Z,31.99
2023-04-27T08:02:11.232Z,31.55
2023-04-27T08:02:58.888Z,31.40
2023-04-27T08:03:57.955Z,31.45
2023-04-27T08:04:58.121Z,31.48
2023-04-27T08:05:58.153Z,31.46
2023-04-27T08:06:58.090Z,31.29
2023-04-27T08:07:57.745Z,31.32
2023-04-27T08:08:57.636Z,31.20
2023-04-27T08:09:57.603Z,31.23
2023-04-27T08:10:57.602Z,31.16
2023-04-27T08:11:57.588Z,31.97
2023-04-27T08:12:58.026Z,31.89
2023-04-27T08:13:59.036Z,31.92
2023-04-27T08:14:58.622Z,31.57
2023-04-27T08:15:58.609Z,31.72
2023-04-27T08:16:57.734Z,31.75
2023-04-27T08:17:57.684Z,31.20
2023-04-27T08:18:58.655Z,31.44
2023-04-27T08:19:57.651Z,31.31
2023-04-27T08:20:57.632Z,31.12
2023-04-27T08:21:57.599Z,30.85
2023-04-27T08:22:57.560Z,30.55
2023-04-27T08:23:57.544Z,29.98
2023-04-27T08:24:57.522Z,30.37
2023-04-27T08:25:57.511Z,30.80
2023-04-27T08:26:57.509Z,31.09
2023-04-27T08:27:57.479Z,31.28
2023-04-27T08:28:57.471Z,31.31
2023-04-27T08:29:57.484Z,31.35
2023-04-27T08:30:57.464Z,31.41
2023-04-27T08:31:57.538Z,31.33
2023-04-27T08:32:57.445Z,31.24
2023-04-27T08:33:57.384Z,31.19
2023-04-27T08:34:57.362Z,31.13
2023-04-27T08:35:57.347Z,31.10
2023-04-27T08:36:57.330Z,31.02
2023-04-27T08:37:57.333Z,30.98
2023-04-27T08:38:57.280Z,31.47
2023-04-27T08:39:57.267Z,31.30
2023-04-27T08:41:00.863Z,31.12
2023-04-27T08:41:58.199Z,31.01
2023-04-27T08:42:57.199Z,31.24
2023-04-27T08:43:58.475Z,31.27
2023-04-27T08:44:57.150Z,31.27
2023-04-27T08:45:57.163Z,31.16
2023-04-27T08:46:57.169Z,31.01
2023-04-27T08:47:57.175Z,30.82
2023-04-27T08:48:57.179Z,30.84
2023-04-27T08:49:57.185Z,30.73
2023-04-27T08:50:58.121Z,30.91
2023-04-27T08:51:57.202Z,30.86
2023-04-27T08:52:57.327Z,31.05
2023-04-27T08:53:57.214Z,31.09
2023-04-27T08:54:58.050Z,31.10
2023-04-27T08:55:57.185Z,31.20
2023-04-27T08:56:58.126Z,31.14
2023-04-27T08:57:57.170Z,31.18
2023-04-27T08:58:58.056Z,31.25
2023-04-27T08:59:57.158Z,31.24
2023-04-27T09:00:57.166Z,31.27
2023-04-27T09:01:57.166Z,31.21
2023-04-27T09:02:57.264Z,31.01
2023-04-27T09:03:57.217Z,31.43
2023-04-27T09:04:57.256Z,31.35
2023-04-27T09:06:04.589Z,31.23
2023-04-27T09:06:58.002Z,31.35
2023-04-27T09:07:56.973Z,31.27
2023-04-27T09:08:56.940Z,31.44
2023-04-27T09:09:56.908Z,31.43
2023-04-27T09:10:56.916Z,31.32
2023-04-27T09:11:56.834Z,31.45
2023-04-27T09:12:56.811Z,31.41
2023-04-27T09:13:56.776Z,31.37
2023-04-27T09:14:56.754Z,31.44
2023-04-27T09:15:56.741Z,30.94
2023-04-27T09:16:56.702Z,31.14
2023-04-27T09:17:56.783Z,31.19
2023-04-27T09:18:56.640Z,31.32
2023-04-27T09:19:56.606Z,31.34
2023-04-27T09:20:56.587Z,31.28
2023-04-27T09:21:56.565Z,31.26
2023-04-27T09:22:56.537Z,31.21
2023-04-27T09:23:56.522Z,31.30
2023-04-27T09:24:56.484Z,31.24
2023-04-27T09:25:57.148Z,31.25
2023-04-27T09:26:58.982Z,31.27
2023-04-27T09:27:56.419Z,31.22
2023-04-27T09:28:56.381Z,31.27
2023-04-27T09:29:56.353Z,31.27
2023-04-27T09:30:56.338Z,31.24
2023-04-27T09:31:56.351Z,31.25
2023-04-27T09:32:56.385Z,31.27
2023-04-27T09:33:56.245Z,31.27
2023-04-27T09:34:56.219Z,31.25
2023-04-27T09:35:56.209Z,31.27
2023-04-27T09:36:56.162Z,31.29
2023-04-27T09:37:56.122Z,31.28
2023-04-27T09:38:56.100Z,31.32
2023-04-27T09:39:56.072Z,31.27
2023-04-27T09:40:56.638Z,31.28
2023-04-27T09:41:56.020Z,31.27
2023-04-27T09:42:55.976Z,31.25
2023-04-27T09:43:57.834Z,31.29
2023-04-27T09:44:55.926Z,31.31
2023-04-27T09:45:55.952Z,31.32
2023-04-27T09:46:55.867Z,31.29
2023-04-27T09:47:55.883Z,31.29
2023-04-27T09:48:55.831Z,31.29
2023-04-27T09:49:55.792Z,31.20
2023-04-27T09:50:55.775Z,31.20
2023-04-27T09:51:55.744Z,31.20
2023-04-27T09:52:55.709Z,31.23
2023-04-27T09:53:55.675Z,31.28
2023-04-27T09:54:55.660Z,31.23
2023-04-27T09:55:55.659Z,31.26
2023-04-27T09:56:55.608Z,31.24
2023-04-27T09:57:55.563Z,31.24
2023-04-27T09:58:55.540Z,31.27
2023-04-27T09:59:55.515Z,31.28
2023-04-27T10:00:55.514Z,31.27
2023-04-27T10:01:55.461Z,31.27
2023-04-27T10:02:55.614Z,31.31
2023-04-27T10:03:55.604Z,31.33
2023-04-27T10:04:55.427Z,31.32
2023-04-27T10:05:55.371Z,31.33
2023-04-27T10:06:57.725Z,31.34
2023-04-27T10:07:55.492Z,31.37
2023-04-27T10:08:55.483Z,31.33
2023-04-27T10:09:55.462Z,31.33
2023-04-27T10:10:55.450Z,31.30
2023-04-27T10:11:55.449Z,31.28
2023-04-27T10:12:55.463Z,31.31
2023-04-27T10:13:55.471Z,31.34
2023-04-27T10:14:55.391Z,31.34
2023-04-27T10:15:55.390Z,31.28
2023-04-27T10:16:55.423Z,31.31
2023-04-27T10:17:55.395Z,31.24
2023-04-27T10:18:55.347Z,31.29
2023-04-27T10:19:57.336Z,31.28
2023-04-27T10:20:55.287Z,31.33
2023-04-27T10:21:55.251Z,31.27
2023-04-27T10:22:55.223Z,31.34
2023-04-27T10:23:55.213Z,31.27
2023-04-27T10:24:55.170Z,31.28
2023-04-27T10:25:55.135Z,31.30
2023-04-27T10:26:55.161Z,31.29
2023-04-27T10:27:55.072Z,31.33
2023-04-27T10:28:55.042Z,31.29
2023-04-27T10:29:55.017Z,31.31
2023-04-27T10:30:55.030Z,31.25
2023-04-27T10:31:54.961Z,31.27
2023-04-27T10:32:54.953Z,31.35
2023-04-27T10:33:54.896Z,31.31
2023-04-27T10:34:54.873Z,31.28
2023-04-27T10:35:54.870Z,31.23
2023-04-27T10:36:54.827Z,31.29
2023-04-27T10:37:54.794Z,31.31
2023-04-27T10:38:54.778Z,31.28
2023-04-27T10:39:55.032Z,31.28
2023-04-27T10:40:54.732Z,31.24
2023-04-27T10:41:54.711Z,31.25
2023-04-27T10:42:54.694Z,31.27
2023-04-27T10:43:54.665Z,31.25
2023-04-27T10:44:54.651Z,31.27
2023-04-27T10:45:54.638Z,31.25
2023-04-27T10:46:54.598Z,31.29
2023-04-27T10:47:54.589Z,31.29
2023-04-27T10:48:54.538Z,31.25
2023-04-27T10:49:54.539Z,31.27
2023-04-27T10:50:54.498Z,31.20
2023-04-27T10:51:54.463Z,31.22
2023-04-27T10:52:54.429Z,31.17
2023-04-27T10:53:54.405Z,31.20
2023-04-27T10:54:54.372Z,31.18
2023-04-27T10:55:54.402Z,31.20
2023-04-27T10:56:54.384Z,31.22
2023-04-27T10:57:54.307Z,31.19
2023-04-27T10:58:54.292Z,31.17
2023-04-27T10:59:54.260Z,31.20
2023-04-27T11:00:54.255Z,31.23
2023-04-27T11:01:54.290Z,31.14
2023-04-27T11:02:54.309Z,31.13
2023-04-27T11:03:54.215Z,31.20
2023-04-27T11:05:54.250Z,31.19
2023-04-27T11:06:54.118Z,31.16
2023-04-27T11:07:54.086Z,31.19
2023-04-27T11:08:54.061Z,31.18
2023-04-27T11:09:54.044Z,31.24
2023-04-27T11:10:54.016Z,31.20
2023-04-27T11:11:53.986Z,31.20
2023-04-27T11:12:53.955Z,31.19
2023-04-27T11:13:53.935Z,31.20
2023-04-27T11:14:53.919Z,31.21
2023-04-27T11:15:53.930Z,31.14
2023-04-27T11:16:53.872Z,31.17
2023-04-27T11:17:53.860Z,31.13
2023-04-27T11:18:53.813Z,31.16
2023-04-27T11:19:53.790Z,31.05
2023-04-27T11:20:53.769Z,31.08
2023-04-27T11:21:53.756Z,31.08
2023-04-27T11:22:53.717Z,31.20
2023-04-27T11:23:53.693Z,31.11
2023-04-27T11:24:53.684Z,31.11
2023-04-27T11:25:53.663Z,31.10
2023-04-27T11:26:53.613Z,31.10
2023-04-27T11:27:53.581Z,31.10
2023-04-27T11:28:53.579Z,31.10
2023-04-27T11:29:53.546Z,31.05
2023-04-27T11:30:53.529Z,31.09
2023-04-27T11:31:53.562Z,31.08
2023-04-27T11:32:53.506Z,31.07
2023-04-27T11:33:53.453Z,31.14
2023-04-27T11:34:54.298Z,31.08
2023-04-27T11:35:53.403Z,31.08
2023-04-27T11:36:55.496Z,31.16
2023-04-27T11:37:54.372Z,31.04
2023-04-27T11:38:53.321Z,31.11
2023-04-27T11:39:53.325Z,31.13
2023-04-27T11:40:53.273Z,31.07
2023-04-27T11:41:53.247Z,31.09
2023-04-27T11:42:53.240Z,31.10
2023-04-27T11:43:53.195Z,31.08
2023-04-27T11:44:53.172Z,31.08
2023-04-27T11:45:53.156Z,31.08
2023-04-27T11:46:53.220Z,31.42
2023-04-27T11:47:53.132Z,31.54
2023-04-27T11:48:53.065Z,31.45
2023-04-27T11:49:53.041Z,31.79
2023-04-27T11:50:53.232Z,31.90
2023-04-27T11:51:53.004Z,31.70
2023-04-27T11:52:52.965Z,31.66
2023-04-27T11:53:52.926Z,31.67
2023-04-27T11:54:52.898Z,31.53
2023-04-27T11:55:52.876Z,31.43
2023-04-27T11:56:52.846Z,31.51
2023-04-27T11:57:52.814Z,31.57
2023-04-27T11:58:52.785Z,31.51
2023-04-27T11:59:52.751Z,31.56
2023-04-27T12:00:52.726Z,31.50
2023-04-27T12:01:52.724Z,31.54
2023-04-27T12:02:52.797Z,31.57
2023-04-27T12:03:52.825Z,31.45
2023-04-27T12:04:52.888Z,31.58
2023-04-27T12:05:53.541Z,31.52
2023-04-27T12:06:52.570Z,31.60
2023-04-27T12:07:52.539Z,31.61
2023-04-27T12:08:52.501Z,31.52
2023-04-27T12:09:52.488Z,31.57
2023-04-27T12:10:52.458Z,31.61
2023-04-27T12:11:52.428Z,31.58
2023-04-27T12:12:52.400Z,31.54
2023-04-27T12:13:52.381Z,31.57
2023-04-27T12:14:52.354Z,31.55
2023-04-27T12:15:52.326Z,31.55
2023-04-27T12:16:52.374Z,31.57
2023-04-27T12:17:52.347Z,31.61
2023-04-27T12:18:52.316Z,31.54
2023-04-27T12:19:52.306Z,31.53
2023-04-27T12:20:52.289Z,31.55
2023-04-27T12:21:52.298Z,31.54
2023-04-27T12:22:52.309Z,31.52
2023-04-27T12:23:52.306Z,31.48
2023-04-27T12:24:52.313Z,31.52
2023-04-27T12:25:52.306Z,31.46
2023-04-27T12:26:52.313Z,31.46
2023-04-27T12:27:52.310Z,31.50
2023-04-27T12:28:52.359Z,31.49
2023-04-27T12:29:52.387Z,31.49
2023-04-27T12:30:52.339Z,31.48
2023-04-27T12:31:52.323Z,31.48
2023-04-27T12:32:52.508Z,31.49
2023-04-27T12:33:52.333Z,31.48
2023-04-27T12:34:52.329Z,31.49
2023-04-27T12:35:52.331Z,31.46
2023-04-27T12:36:52.351Z,31.49
2023-04-27T12:37:52.333Z,31.52
2023-04-27T12:38:52.347Z,31.43
2023-04-27T12:39:52.336Z,31.49
2023-04-27T12:40:52.340Z,31.46
2023-04-27T12:41:52.341Z,31.49
2023-04-27T12:42:52.333Z,31.48
2023-04-27T12:43:52.343Z,31.48
2023-04-27T12:44:52.357Z,31.48
2023-04-27T12:45:52.382Z,31.49
2023-04-27T12:46:52.460Z,31.49
2023-04-27T12:48:52.402Z,31.48
2023-04-27T12:49:52.367Z,31.50
2023-04-27T12:50:52.361Z,31.46
2023-04-27T12:51:52.363Z,31.48
2023-04-27T12:52:52.358Z,31.50
2023-04-27T12:53:52.362Z,31.48
2023-04-27T12:54:52.359Z,31.42